Time;durP1;ratioP1;P1;durP2;ratioP2;P2;SDS_P1;SDS_P2;PMS_P1;PMS_P2;Temp;Humidity;BMP_temperature;BMP_pressure;BME280_temperature;BME280_humidity;BME280_pressure;Samples;Min_cycle;Max_cycle;Signal;HPM_P1;HPM_P2
2021/03/25 00:01:28;;;;;;;;;;;7.50;77.10;;;;;;5052325;28;19912;-76
2021/03/25 00:03:55;;;;;;;;;;;7.60;77.20;;;;;;5050501;28;20386;-76
2021/03/25 00:06:22;;;;;;;;;;;7.60;77.30;;;;;;5050867;28;19975;-76
2021/03/25 00:08:48;;;;;;;;;;;7.50;77.20;;;;;;5052409;28;19913;-77
2021/03/25 00:11:14;;;;;;;;;;;7.60;77.20;;;;;;5059704;28;19913;-76
2021/03/25 00:13:40;;;;;;;;;;;7.50;77.20;;;;;;5100644;28;19912;-75
2021/03/25 00:16:06;;;;;;;;;;;7.50;77.20;;;;;;5100932;28;19912;-74
2021/03/25 00:18:32;;;;;;;;;;;7.60;77.30;;;;;;5092596;28;20337;-74
2021/03/25 00:20:58;;;;;;;;;;;7.50;77.30;;;;;;5074141;28;19998;-75
2021/03/25 00:23:24;;;;;;;;;;;7.60;77.50;;;;;;5092414;28;20328;-75
2021/03/25 00:25:50;;;;;;;;;;;7.50;77.40;;;;;;5092752;28;19912;-76
2021/03/25 00:28:17;;;;;;;;;;;7.50;77.50;;;;;;5092495;28;20338;-76
2021/03/25 00:30:43;;;;;;;;;;;7.60;77.50;;;;;;5090755;28;19947;-75
2021/03/25 00:33:10;;;;;;;;;;;7.50;77.50;;;;;;5092314;28;19927;-76
2021/03/25 00:35:36;;;;;;;;;;;7.50;77.50;;;;;;5074366;28;19912;-76
2021/03/25 00:38:02;;;;;;;;;;;7.50;77.50;;;;;;5074827;28;19998;-76
2021/03/25 00:40:28;;;;;;;;;;;7.50;77.60;;;;;;5092985;28;19982;-76
2021/03/25 00:42:53;;;;;;;;;;;7.60;77.60;;;;;;5094707;28;19977;-76
2021/03/25 00:45:24;;;;;;;;;;;7.50;77.60;;;;;;5074188;28;19908;-77
2021/03/25 00:47:53;;;;;;;;;;;7.50;77.70;;;;;;5057906;28;20072;-76
2021/03/25 00:50:22;;;;;;;;;;;7.50;77.80;;;;;;5092970;28;19962;-77
2021/03/25 00:52:48;;;;;;;;;;;7.40;77.80;;;;;;5057256;28;19951;-77
2021/03/25 00:55:13;;;;;;;;;;;7.50;77.90;;;;;;5085526;28;20319;-76
2021/03/25 00:57:39;;;;;;;;;;;7.50;77.80;;;;;;5099272;28;19959;-75
2021/03/25 01:00:05;;;;;;;;;;;7.40;77.80;;;;;;5096353;28;20006;-76
2021/03/25 01:02:31;;;;;;;;;;;7.40;77.80;;;;;;5068744;28;19912;-76
2021/03/25 01:04:56;;;;;;;;;;;7.40;77.80;;;;;;5102642;28;19924;-76
2021/03/25 01:07:24;;;;;;;;;;;7.50;77.90;;;;;;5099189;28;19993;-77
2021/03/25 01:09:50;;;;;;;;;;;7.40;77.90;;;;;;5099614;28;20400;-77
2021/03/25 01:12:15;;;;;;;;;;;7.40;78.50;;;;;;5092207;28;19912;-75
2021/03/25 01:14:41;;;;;;;;;;;7.40;78.00;;;;;;5078528;28;19915;-76
2021/03/25 01:17:07;;;;;;;;;;;7.50;78.00;;;;;;5098150;28;19912;-73
2021/03/25 01:19:32;;;;;;;;;;;7.40;78.00;;;;;;5095734;28;19919;-72
2021/03/25 01:21:59;;;;;;;;;;;7.40;78.00;;;;;;5096464;28;19920;-76
2021/03/25 01:24:25;;;;;;;;;;;7.40;78.10;;;;;;5099054;28;19916;-77
2021/03/25 01:26:50;;;;;;;;;;;7.30;78.10;;;;;;5077978;28;19919;-77
2021/03/25 01:29:16;;;;;;;;;;;7.40;78.10;;;;;;5100482;28;19908;-75
2021/03/25 01:31:42;;;;;;;;;;;7.40;78.10;;;;;;5102274;28;19927;-77
2021/03/25 01:34:08;;;;;;;;;;;7.20;78.10;;;;;;5090416;28;19930;-78
2021/03/25 01:36:34;;;;;;;;;;;7.40;78.20;;;;;;5095880;28;19912;-75
2021/03/25 01:39:02;;;;;;;;;;;7.40;78.20;;;;;;5096497;28;19912;-77
2021/03/25 01:41:29;;;;;;;;;;;7.40;78.20;;;;;;5089127;28;19938;-75
2021/03/25 01:43:55;;;;;;;;;;;7.40;78.20;;;;;;5112539;28;19922;-77
2021/03/25 01:46:34;;;;;;;;;;;7.40;78.20;;;;;;5118134;28;19908;-78
2021/03/25 01:57:48;;;;;;;;;;;7.40;78.30;;;;;;5944500;23;19929;-77
2021/03/25 02:06:10;;;;;;;;;;;7.40;78.30;;;;;;5350519;23;19968;-79
2021/03/25 02:08:50;;;;;;;;;;;7.40;78.30;;;;;;5018365;28;19914;-79
2021/03/25 02:11:21;;;;;;;;;;;7.40;78.30;;;;;;5018335;28;19916;-79
2021/03/25 02:16:25;;;;;;;;;;;7.40;78.30;;;;;;5115371;23;19912;-79
2021/03/25 02:18:54;;;;;;;;;;;7.40;78.40;;;;;;5016503;28;19925;-79
2021/03/25 02:21:31;;;;;;;;;;;7.40;78.40;;;;;;5017313;28;19941;-80
2021/03/25 02:24:16;;;;;;;;;;;7.40;78.40;;;;;;5413418;23;19920;-78
2021/03/25 02:27:01;;;;;;;;;;;7.60;78.50;;;;;;5004550;28;20010;-78
2021/03/25 02:35:09;;;;;;;;;;;7.50;78.30;;;;;;5181030;23;19984;-80
2021/03/25 02:37:35;;;;;;;;;;;7.50;78.20;;;;;;5037090;28;19909;-80
2021/03/25 02:40:19;;;;;;;;;;;7.50;78.10;;;;;;5037103;28;19963;-80
2021/03/25 02:42:52;;;;;;;;;;;7.60;78.20;;;;;;5036364;28;20376;-80
2021/03/25 02:45:19;;;;;;;;;;;7.50;78.10;;;;;;5018691;28;19927;-80
2021/03/25 02:47:47;;;;;;;;;;;7.60;78.20;;;;;;5018510;28;19949;-80
2021/03/25 02:50:16;;;;;;;;;;;7.60;78.10;;;;;;5036495;28;19904;-80
2021/03/25 02:52:45;;;;;;;;;;;7.60;78.10;;;;;;5036320;28;19913;-80
2021/03/25 02:55:12;;;;;;;;;;;7.60;78.10;;;;;;5036813;28;19925;-80
2021/03/25 02:57:43;;;;;;;;;;;7.50;78.10;;;;;;4995463;28;19912;-80
2021/03/25 03:00:16;;;;;;;;;;;7.60;78.20;;;;;;4961792;28;19914;-80
2021/03/25 03:02:58;;;;;;;;;;;7.60;78.20;;;;;;4980492;28;19920;-80
2021/03/25 03:05:26;;;;;;;;;;;7.60;78.20;;;;;;4964977;28;19906;-80
2021/03/25 03:10:29;;;;;;;;;;;7.70;78.20;;;;;;5141813;23;19947;-80
2021/03/25 03:12:56;;;;;;;;;;;7.70;78.20;;;;;;5382687;23;19922;-79
2021/03/25 03:21:13;;;;;;;;;;;7.70;78.20;;;;;;5117260;23;19921;-80
2021/03/25 03:23:39;;;;;;;;;;;7.70;78.20;;;;;;5036481;28;19921;-80
2021/03/25 03:26:12;;;;;;;;;;;7.70;78.20;;;;;;5019743;28;19911;-80
2021/03/25 03:34:16;;;;;;;;;;;7.70;78.30;;;;;;5493276;23;20916;-78
2021/03/25 03:36:42;;;;;;;;;;;7.70;78.30;;;;;;5036018;28;19925;-78
2021/03/25 03:39:18;;;;;;;;;;;7.70;78.30;;;;;;5791399;23;20006;-77
2021/03/25 03:47:22;;;;;;;;;;;7.80;78.40;;;;;;5510294;23;19910;-78
2021/03/25 03:52:38;;;;;;;;;;;7.80;78.40;;;;;;6024544;23;22009;-77
2021/03/25 03:58:05;;;;;;;;;;;7.70;78.50;;;;;;5401404;23;19905;-78
2021/03/25 04:00:32;;;;;;;;;;;7.80;78.50;;;;;;4975784;28;19937;-79
2021/03/25 04:03:18;;;;;;;;;;;7.80;78.50;;;;;;4975734;28;20029;-78
2021/03/25 04:06:04;;;;;;;;;;;7.80;78.50;;;;;;4955023;29;19926;-79
2021/03/25 04:08:33;;;;;;;;;;;7.80;78.60;;;;;;4899534;29;19983;-80
2021/03/25 04:11:11;;;;;;;;;;;7.80;78.60;;;;;;4932339;29;20312;-80
2021/03/25 04:13:39;;;;;;;;;;;7.80;78.60;;;;;;4932273;29;19945;-80
2021/03/25 04:16:05;;;;;;;;;;;7.80;78.60;;;;;;4932080;29;20400;-80
2021/03/25 04:18:37;;;;;;;;;;;7.80;78.60;;;;;;4931863;29;19911;-80
2021/03/25 04:21:06;;;;;;;;;;;7.80;78.70;;;;;;4931957;29;19910;-80
2021/03/25 04:23:32;;;;;;;;;;;7.80;78.60;;;;;;4931636;29;19914;-80
2021/03/25 04:26:01;;;;;;;;;;;7.80;78.60;;;;;;4951790;28;19910;-80
2021/03/25 04:28:31;;;;;;;;;;;7.90;78.70;;;;;;4970194;28;20366;-80
2021/03/25 04:30:57;;;;;;;;;;;7.80;78.60;;;;;;4970105;28;19914;-80
2021/03/25 04:33:23;;;;;;;;;;;7.80;78.70;;;;;;4970268;28;20281;-80
2021/03/25 04:35:50;;;;;;;;;;;7.80;78.60;;;;;;4972489;28;19977;-80
2021/03/25 04:38:18;;;;;;;;;;;7.80;78.70;;;;;;4991317;28;19914;-80
2021/03/25 04:40:44;;;;;;;;;;;7.90;78.80;;;;;;4991588;28;20314;-80
2021/03/25 04:43:14;;;;;;;;;;;7.80;78.80;;;;;;4991834;28;20012;-80
2021/03/25 04:45:47;;;;;;;;;;;7.80;78.80;;;;;;4973775;28;19914;-80
2021/03/25 04:48:17;;;;;;;;;;;7.80;78.80;;;;;;4972107;28;19988;-80
2021/03/25 04:50:47;;;;;;;;;;;8.00;78.90;;;;;;4972249;28;19906;-80
2021/03/25 04:53:22;;;;;;;;;;;7.80;78.80;;;;;;4954704;28;19910;-80
2021/03/25 04:55:48;;;;;;;;;;;7.80;78.80;;;;;;4971932;28;20340;-79
2021/03/25 04:58:19;;;;;;;;;;;7.80;78.80;;;;;;4971957;28;19906;-80
2021/03/25 05:00:45;;;;;;;;;;;7.80;78.90;;;;;;4972211;28;20424;-80
2021/03/25 05:03:15;;;;;;;;;;;7.90;78.90;;;;;;4971863;28;19997;-80
2021/03/25 05:05:41;;;;;;;;;;;7.80;78.90;;;;;;4972037;28;19914;-79
2021/03/25 05:08:08;;;;;;;;;;;7.80;78.90;;;;;;4972890;28;19914;-80
2021/03/25 05:10:44;;;;;;;;;;;7.80;78.90;;;;;;4958083;28;20707;-79
2021/03/25 05:13:26;;;;;;;;;;;7.70;78.90;;;;;;4958170;28;19929;-80
2021/03/25 05:16:08;;;;;;;;;;;7.80;79.00;;;;;;4975240;28;19918;-80
2021/03/25 05:18:36;;;;;;;;;;;7.80;78.90;;;;;;4975236;28;19906;-79
2021/03/25 05:21:06;;;;;;;;;;;7.70;78.90;;;;;;4975196;28;19970;-80
2021/03/25 05:23:37;;;;;;;;;;;7.80;79.00;;;;;;4974991;28;19914;-80
2021/03/25 05:26:06;;;;;;;;;;;7.80;79.00;;;;;;4975213;28;19917;-79
2021/03/25 05:28:36;;;;;;;;;;;7.70;79.10;;;;;;4957648;28;19921;-79
2021/03/25 05:31:04;;;;;;;;;;;7.70;79.10;;;;;;4943531;28;20263;-79
2021/03/25 05:33:31;;;;;;;;;;;7.60;79.10;;;;;;4975076;28;19984;-79
2021/03/25 05:36:09;;;;;;;;;;;7.60;79.20;;;;;;4956163;28;19907;-80
2021/03/25 05:38:35;;;;;;;;;;;7.60;79.20;;;;;;4973968;28;19906;-80
2021/03/25 05:41:19;;;;;;;;;;;7.70;79.40;;;;;;4975129;28;20257;-80
2021/03/25 05:43:58;;;;;;;;;;;7.60;79.40;;;;;;4974716;28;19918;-79
2021/03/25 05:46:31;;;;;;;;;;;7.50;79.50;;;;;;4957708;28;19949;-80
2021/03/25 05:49:02;;;;;;;;;;;7.50;79.60;;;;;;4955801;28;19906;-80
2021/03/25 05:51:40;;;;;;;;;;;7.40;79.60;;;;;;4960818;28;19906;-80
2021/03/25 05:54:18;;;;;;;;;;;7.50;79.80;;;;;;4974696;28;19914;-80
2021/03/25 05:57:00;;;;;;;;;;;7.30;79.80;;;;;;4959563;28;19913;-80
2021/03/25 05:59:34;;;;;;;;;;;7.40;80.00;;;;;;4974587;28;19910;-80
2021/03/25 06:02:05;;;;;;;;;;;7.30;80.00;;;;;;4973535;28;19906;-80
2021/03/25 06:04:31;;;;;;;;;;;7.30;80.10;;;;;;4974535;28;19992;-79
2021/03/25 06:07:05;;;;;;;;;;;7.20;80.10;;;;;;4974393;28;20361;-80
2021/03/25 06:09:37;;;;;;;;;;;7.20;80.20;;;;;;4974526;28;20225;-80
2021/03/25 06:12:21;;;;;;;;;;;7.20;80.30;;;;;;4955444;28;19946;-80
2021/03/25 06:14:52;;;;;;;;;;;7.20;80.40;;;;;;4973580;28;19913;-80
2021/03/25 06:17:22;;;;;;;;;;;7.20;80.40;;;;;;4972955;28;19909;-80
2021/03/25 06:20:08;;;;;;;;;;;7.10;80.40;;;;;;4958366;28;20058;-80
2021/03/25 06:22:38;;;;;;;;;;;7.10;80.40;;;;;;4959047;28;19993;-80
2021/03/25 06:25:16;;;;;;;;;;;7.00;80.40;;;;;;4956279;28;19914;-80
2021/03/25 06:27:52;;;;;;;;;;;7.10;80.60;;;;;;4973630;28;20026;-80
2021/03/25 06:30:21;;;;;;;;;;;7.00;80.60;;;;;;4974119;28;19906;-79
2021/03/25 06:33:02;;;;;;;;;;;7.00;80.60;;;;;;4972466;28;19913;-80
2021/03/25 06:35:34;;;;;;;;;;;7.10;80.60;;;;;;4956380;28;20329;-79
2021/03/25 06:38:02;;;;;;;;;;;7.10;80.50;;;;;;4972642;28;19917;-80
2021/03/25 06:40:32;;;;;;;;;;;7.20;80.40;;;;;;4973955;28;19910;-80
2021/03/25 06:43:07;;;;;;;;;;;7.20;80.30;;;;;;4973787;28;20001;-80
2021/03/25 06:45:35;;;;;;;;;;;7.30;80.20;;;;;;4971108;28;19910;-80
2021/03/25 06:48:08;;;;;;;;;;;7.40;80.00;;;;;;4973662;28;19928;-80
2021/03/25 06:50:39;;;;;;;;;;;7.40;79.70;;;;;;4973888;28;19906;-80
2021/03/25 06:53:12;;;;;;;;;;;7.50;79.60;;;;;;4956502;28;20450;-80
2021/03/25 06:55:38;;;;;;;;;;;7.50;80.10;;;;;;4973829;28;20739;-79
2021/03/25 06:58:06;;;;;;;;;;;7.60;79.40;;;;;;4973750;28;19961;-79
2021/03/25 07:00:35;;;;;;;;;;;7.60;79.40;;;;;;4973324;28;20273;-79
2021/03/25 07:03:03;;;;;;;;;;;7.60;79.40;;;;;;4973663;28;19954;-79
2021/03/25 07:05:30;;;;;;;;;;;7.60;79.40;;;;;;4973325;28;19918;-80
2021/03/25 07:08:01;;;;;;;;;;;7.50;79.50;;;;;;4973109;28;19906;-79
2021/03/25 07:10:27;;;;;;;;;;;7.60;79.60;;;;;;4955928;28;19906;-79
2021/03/25 07:12:58;;;;;;;;;;;7.60;79.50;;;;;;4973920;28;20037;-79
2021/03/25 07:15:25;;;;;;;;;;;7.70;79.60;;;;;;4972760;28;19945;-80
2021/03/25 07:17:52;;;;;;;;;;;7.70;79.60;;;;;;4975504;28;19906;-80
2021/03/25 07:20:23;;;;;;;;;;;7.70;79.60;;;;;;4973098;28;19906;-80
2021/03/25 07:22:59;;;;;;;;;;;7.70;79.60;;;;;;4972684;28;19975;-80
2021/03/25 07:25:25;;;;;;;;;;;7.80;79.60;;;;;;4972790;28;19910;-80
2021/03/25 07:27:52;;;;;;;;;;;7.80;79.60;;;;;;4973149;28;19929;-80
2021/03/25 07:30:19;;;;;;;;;;;7.90;79.60;;;;;;4954223;28;19914;-80
2021/03/25 07:32:54;;;;;;;;;;;7.90;79.40;;;;;;4972858;28;19957;-80
2021/03/25 07:35:30;;;;;;;;;;;8.00;79.30;;;;;;4972978;28;19906;-80
2021/03/25 07:37:57;;;;;;;;;;;8.00;79.10;;;;;;4973184;28;19906;-76
2021/03/25 07:40:27;;;;;;;;;;;8.20;79.00;;;;;;4973479;28;19913;-78
2021/03/25 07:42:53;;;;;;;;;;;8.20;78.80;;;;;;4966230;28;19906;-76
2021/03/25 07:45:22;;;;;;;;;;;8.40;78.70;;;;;;4973238;28;19944;-77
2021/03/25 07:47:48;;;;;;;;;;;8.40;78.60;;;;;;4973403;28;19922;-76
2021/03/25 07:50:22;;;;;;;;;;;8.50;78.60;;;;;;4972630;28;19944;-78
2021/03/25 07:52:47;;;;;;;;;;;8.40;78.60;;;;;;4973257;28;19906;-77
2021/03/25 07:55:20;;;;;;;;;;;8.50;78.60;;;;;;4972957;28;19913;-77
2021/03/25 07:57:48;;;;;;;;;;;8.50;78.50;;;;;;4973650;28;19984;-77
2021/03/25 08:00:15;;;;;;;;;;;8.60;78.60;;;;;;4974668;28;20272;-77
2021/03/25 08:02:41;;;;;;;;;;;8.60;79.20;;;;;;4974220;28;20260;-77
2021/03/25 08:05:20;;;;;;;;;;;8.70;78.50;;;;;;4973556;28;19914;-77
2021/03/25 08:07:46;;;;;;;;;;;8.90;78.40;;;;;;4957577;28;19914;-78
2021/03/25 08:10:22;;;;;;;;;;;9.20;78.20;;;;;;4973665;28;20345;-78
2021/03/25 08:12:49;;;;;;;;;;;9.30;77.90;;;;;;4972500;28;19913;-76
2021/03/25 08:15:24;;;;;;;;;;;9.50;78.10;;;;;;4972788;28;20001;-78
2021/03/25 08:18:05;;;;;;;;;;;9.50;77.10;;;;;;4972996;28;20292;-77
2021/03/25 08:20:50;;;;;;;;;;;9.60;77.10;;;;;;4972877;28;19906;-75
2021/03/25 08:23:33;;;;;;;;;;;9.80;77.30;;;;;;4958287;28;19918;-77
2021/03/25 08:26:13;;;;;;;;;;;9.70;77.40;;;;;;4972840;28;19914;-77
2021/03/25 08:28:53;;;;;;;;;;;9.70;77.40;;;;;;4954993;28;19920;-76
2021/03/25 08:31:27;;;;;;;;;;;9.80;77.50;;;;;;4972954;28;19922;-77
2021/03/25 08:34:04;;;;;;;;;;;10.00;77.50;;;;;;4974424;28;19914;-77
2021/03/25 08:36:44;;;;;;;;;;;10.10;77.30;;;;;;4975249;28;19929;-77
2021/03/25 08:39:28;;;;;;;;;;;10.20;77.80;;;;;;4956412;28;19914;-76
2021/03/25 08:42:00;;;;;;;;;;;10.30;77.00;;;;;;4972699;28;19920;-76
2021/03/25 08:44:44;;;;;;;;;;;10.40;77.00;;;;;;4958592;28;19922;-76
2021/03/25 08:47:13;;;;;;;;;;;10.40;77.20;;;;;;4975815;28;19914;-77
2021/03/25 08:49:41;;;;;;;;;;;10.40;77.30;;;;;;4976418;28;19945;-74
2021/03/25 08:52:09;;;;;;;;;;;10.50;77.40;;;;;;4975961;28;19945;-75
2021/03/25 08:54:39;;;;;;;;;;;10.70;77.40;;;;;;4976803;28;19906;-78
2021/03/25 08:57:16;;;;;;;;;;;10.80;77.20;;;;;;4976766;28;19945;-76
2021/03/25 08:59:45;;;;;;;;;;;11.10;77.20;;;;;;4958491;28;19921;-77
2021/03/25 09:02:34;;;;;;;;;;;11.10;76.90;;;;;;4975548;28;21202;-77
2021/03/25 09:05:06;;;;;;;;;;;11.20;76.90;;;;;;4977863;28;19925;-77
2021/03/25 09:07:33;;;;;;;;;;;11.30;76.90;;;;;;4955333;28;20049;-78
2021/03/25 09:10:00;;;;;;;;;;;11.30;76.70;;;;;;4959828;28;19945;-78
2021/03/25 09:12:30;;;;;;;;;;;11.40;76.60;;;;;;4975086;28;19914;-78
2021/03/25 09:14:57;;;;;;;;;;;11.40;76.60;;;;;;4975192;28;19914;-78
2021/03/25 09:17:25;;;;;;;;;;;11.50;76.70;;;;;;4975232;28;19907;-78
2021/03/25 09:19:55;;;;;;;;;;;11.60;76.80;;;;;;4957812;28;20272;-78
2021/03/25 09:22:48;;;;;;;;;;;11.70;76.80;;;;;;4975284;28;20335;-81
2021/03/25 09:25:15;;;;;;;;;;;11.90;76.70;;;;;;4978009;28;19957;-80
2021/03/25 09:27:57;;;;;;;;;;;12.00;76.50;;;;;;4957823;28;20353;-78
2021/03/25 09:30:56;;;;;;;;;;;12.00;76.30;;;;;;4957913;28;20470;-78
2021/03/25 09:33:38;;;;;;;;;;;12.00;76.40;;;;;;4958454;28;19914;-76
2021/03/25 09:36:18;;;;;;;;;;;12.10;76.50;;;;;;4976579;28;19914;-76
2021/03/25 09:38:58;;;;;;;;;;;12.10;77.20;;;;;;4957124;28;19918;-79
2021/03/25 09:41:39;;;;;;;;;;;12.20;76.70;;;;;;4974848;28;19914;-77
2021/03/25 09:44:24;;;;;;;;;;;12.10;76.70;;;;;;4974906;28;19918;-77
2021/03/25 09:47:09;;;;;;;;;;;12.30;76.70;;;;;;4960446;28;19961;-79
2021/03/25 09:49:39;;;;;;;;;;;12.40;76.50;;;;;;4960492;28;19912;-78
2021/03/25 09:52:18;;;;;;;;;;;12.50;76.50;;;;;;4974937;28;20419;-75
2021/03/25 09:54:46;;;;;;;;;;;12.50;76.40;;;;;;4973473;28;19965;-76
2021/03/25 09:57:30;;;;;;;;;;;12.50;76.40;;;;;;4955415;28;19906;-75
2021/03/25 10:00:00;;;;;;;;;;;12.70;76.50;;;;;;4974540;28;20854;-75
2021/03/25 10:02:40;;;;;;;;;;;12.70;76.30;;;;;;4975276;28;19906;-75
2021/03/25 10:05:20;;;;;;;;;;;12.80;76.20;;;;;;4957174;28;20337;-75
2021/03/25 10:07:47;;;;;;;;;;;12.90;76.20;;;;;;4956907;28;19960;-77
2021/03/25 10:10:30;;;;;;;;;;;13.00;76.20;;;;;;4974623;28;19914;-77
2021/03/25 10:13:17;;;;;;;;;;;13.10;76.20;;;;;;4975913;28;19913;-78
2021/03/25 10:15:45;;;;;;;;;;;13.00;75.90;;;;;;4958464;28;20314;-78
2021/03/25 10:18:31;;;;;;;;;;;13.10;76.00;;;;;;4976090;28;19910;-77
2021/03/25 10:21:12;;;;;;;;;;;13.30;75.90;;;;;;4958835;28;19909;-79
2021/03/25 10:23:42;;;;;;;;;;;13.30;75.80;;;;;;4958195;28;19918;-76
2021/03/25 10:26:28;;;;;;;;;;;13.30;75.50;;;;;;4974437;28;19910;-79
2021/03/25 10:29:02;;;;;;;;;;;13.30;75.50;;;;;;4960283;28;19913;-79
2021/03/25 10:31:32;;;;;;;;;;;13.40;75.70;;;;;;4974984;28;19913;-77
2021/03/25 10:34:02;;;;;;;;;;;13.40;75.60;;;;;;4957044;28;20356;-77
2021/03/25 10:36:42;;;;;;;;;;;13.40;75.60;;;;;;4974410;28;19906;-77
2021/03/25 10:39:15;;;;;;;;;;;13.40;75.70;;;;;;4974355;28;19913;-76
2021/03/25 10:41:42;;;;;;;;;;;13.30;76.00;;;;;;4974432;28;20008;-76
2021/03/25 10:44:18;;;;;;;;;;;13.30;76.20;;;;;;4974084;28;20265;-74
2021/03/25 10:46:44;;;;;;;;;;;13.50;76.20;;;;;;4974585;28;20356;-77
2021/03/25 10:49:15;;;;;;;;;;;13.60;75.90;;;;;;4956745;28;19933;-75
2021/03/25 10:51:42;;;;;;;;;;;13.50;75.70;;;;;;4973809;28;19906;-75
2021/03/25 10:54:27;;;;;;;;;;;13.60;75.70;;;;;;4956505;28;20254;-76
2021/03/25 10:56:57;;;;;;;;;;;13.60;75.90;;;;;;4973910;28;19984;-75
2021/03/25 10:59:25;;;;;;;;;;;13.90;76.00;;;;;;4973863;28;19914;-76
2021/03/25 11:01:52;;;;;;;;;;;13.90;75.60;;;;;;4974082;28;19906;-77
2021/03/25 11:04:20;;;;;;;;;;;14.00;75.50;;;;;;4973974;28;19957;-76
2021/03/25 11:06:45;;;;;;;;;;;13.80;75.40;;;;;;4936235;29;19907;-77
2021/03/25 11:09:16;;;;;;;;;;;13.70;75.60;;;;;;4952020;29;20002;-76
2021/03/25 11:11:42;;;;;;;;;;;13.70;75.90;;;;;;4936344;29;20296;-77
2021/03/25 11:14:28;;;;;;;;;;;13.60;76.10;;;;;;4952436;29;19913;-79
2021/03/25 11:16:55;;;;;;;;;;;13.70;76.40;;;;;;4934329;29;19910;-77
2021/03/25 11:19:22;;;;;;;;;;;13.60;76.30;;;;;;4950186;29;19906;-76
2021/03/25 11:21:48;;;;;;;;;;;13.40;76.40;;;;;;4952168;29;20275;-74
2021/03/25 11:24:21;;;;;;;;;;;13.40;76.70;;;;;;4952554;29;19919;-74
2021/03/25 11:26:47;;;;;;;;;;;13.30;76.90;;;;;;4935947;29;19918;-75
2021/03/25 11:29:15;;;;;;;;;;;13.40;76.80;;;;;;4936075;29;19925;-76
2021/03/25 11:31:41;;;;;;;;;;;13.40;76.80;;;;;;4954283;29;19945;-76
2021/03/25 11:34:07;;;;;;;;;;;13.40;76.80;;;;;;4953793;29;20439;-73
2021/03/25 11:36:43;;;;;;;;;;;13.30;77.00;;;;;;4951769;28;19942;-73
2021/03/25 11:39:10;;;;;;;;;;;13.20;77.20;;;;;;4973336;28;20327;-75
2021/03/25 11:41:36;;;;;;;;;;;13.10;77.30;;;;;;4972885;28;19914;-75
2021/03/25 11:44:05;;;;;;;;;;;13.00;77.50;;;;;;4972560;28;20307;-74
2021/03/25 11:46:32;;;;;;;;;;;12.90;77.70;;;;;;4973107;28;19961;-74
2021/03/25 11:49:02;;;;;;;;;;;12.90;77.80;;;;;;4957035;28;19925;-75
2021/03/25 11:51:28;;;;;;;;;;;12.80;78.00;;;;;;4955725;28;21057;-74
2021/03/25 11:53:54;;;;;;;;;;;12.70;78.30;;;;;;4973078;28;19910;-74
2021/03/25 11:56:24;;;;;;;;;;;12.70;78.40;;;;;;4970886;28;19961;-76
2021/03/25 11:58:59;;;;;;;;;;;12.80;78.40;;;;;;4972808;28;19914;-76
2021/03/25 12:01:26;;;;;;;;;;;12.80;78.20;;;;;;4972588;28;19906;-73
2021/03/25 12:03:53;;;;;;;;;;;12.70;78.20;;;;;;4953687;28;20357;-74
2021/03/25 12:06:20;;;;;;;;;;;12.70;78.30;;;;;;4957493;28;19915;-77
2021/03/25 12:08:46;;;;;;;;;;;12.70;78.30;;;;;;4972708;28;19914;-75
2021/03/25 12:11:13;;;;;;;;;;;12.70;78.30;;;;;;4972697;28;20324;-74
2021/03/25 12:13:39;;;;;;;;;;;12.90;78.30;;;;;;4972682;28;19925;-73
2021/03/25 12:16:06;;;;;;;;;;;13.00;78.10;;;;;;4972199;28;19921;-74
2021/03/25 12:18:34;;;;;;;;;;;13.10;77.70;;;;;;4972075;28;19906;-75
2021/03/25 12:21:05;;;;;;;;;;;13.20;77.30;;;;;;4972745;28;20000;-75
2021/03/25 12:23:32;;;;;;;;;;;13.20;77.00;;;;;;4972247;28;19969;-75
2021/03/25 12:25:59;;;;;;;;;;;13.10;77.20;;;;;;4972500;28;19906;-75
2021/03/25 12:28:25;;;;;;;;;;;12.90;77.50;;;;;;4973097;28;19945;-75
2021/03/25 12:30:51;;;;;;;;;;;12.80;77.70;;;;;;4972377;28;20395;-74
2021/03/25 12:33:18;;;;;;;;;;;12.70;77.90;;;;;;4972447;28;19914;-75
2021/03/25 12:35:44;;;;;;;;;;;12.60;78.10;;;;;;4972124;28;19969;-74
2021/03/25 12:38:10;;;;;;;;;;;12.50;78.30;;;;;;4972668;28;20372;-74
2021/03/25 12:40:35;;;;;;;;;;;12.30;78.60;;;;;;4955199;28;19906;-73
2021/03/25 12:43:01;;;;;;;;;;;12.20;78.90;;;;;;4972352;28;19906;-76
2021/03/25 12:45:30;;;;;;;;;;;12.10;79.10;;;;;;4972751;28;19914;-76
2021/03/25 12:47:55;;;;;;;;;;;11.90;79.30;;;;;;4972066;28;19942;-75
2021/03/25 12:50:22;;;;;;;;;;;11.80;79.60;;;;;;4972106;28;20008;-73
2021/03/25 12:52:47;;;;;;;;;;;11.70;79.90;;;;;;4971896;28;19906;-78
2021/03/25 12:55:14;;;;;;;;;;;11.70;80.00;;;;;;4953458;28;19914;-75
2021/03/25 12:57:39;;;;;;;;;;;11.60;80.20;;;;;;4972165;28;19918;-75
2021/03/25 13:00:07;;;;;;;;;;;11.50;80.30;;;;;;4972000;28;19961;-76
2021/03/25 13:02:33;;;;;;;;;;;11.40;80.50;;;;;;4954727;28;19907;-75
2021/03/25 13:04:58;;;;;;;;;;;11.40;80.70;;;;;;4972357;28;19981;-76
2021/03/25 13:07:24;;;;;;;;;;;11.40;80.80;;;;;;4954872;28;19910;-76
2021/03/25 13:09:49;;;;;;;;;;;11.30;80.70;;;;;;4972077;28;19929;-75
2021/03/25 13:12:24;;;;;;;;;;;11.30;80.80;;;;;;4972466;28;19960;-74
2021/03/25 13:14:50;;;;;;;;;;;11.40;81.00;;;;;;4971890;28;19913;-72
2021/03/25 13:17:16;;;;;;;;;;;11.60;80.90;;;;;;4971777;28;19906;-74
2021/03/25 13:19:42;;;;;;;;;;;11.50;81.30;;;;;;4972005;28;19996;-74
2021/03/25 13:22:07;;;;;;;;;;;11.50;80.50;;;;;;4955017;28;19964;-74
2021/03/25 13:24:33;;;;;;;;;;;11.60;80.40;;;;;;4971651;28;19918;-75
2021/03/25 13:26:58;;;;;;;;;;;11.60;80.20;;;;;;4972332;28;20355;-75
2021/03/25 13:29:24;;;;;;;;;;;11.60;80.00;;;;;;4973247;28;20388;-75
2021/03/25 13:31:49;;;;;;;;;;;11.60;80.00;;;;;;4975330;28;19906;-74
2021/03/25 13:34:15;;;;;;;;;;;11.60;80.00;;;;;;4974863;28;19912;-74
2021/03/25 13:36:41;;;;;;;;;;;11.60;80.10;;;;;;4974839;28;19912;-75
2021/03/25 13:39:06;;;;;;;;;;;11.70;80.20;;;;;;4974649;28;19962;-75
2021/03/25 13:41:32;;;;;;;;;;;11.80;80.10;;;;;;4974591;28;20371;-75
2021/03/25 13:43:57;;;;;;;;;;;11.90;79.80;;;;;;4973910;28;20345;-75
2021/03/25 13:46:23;;;;;;;;;;;12.00;79.50;;;;;;4974551;28;19906;-76
2021/03/25 13:48:48;;;;;;;;;;;12.10;79.30;;;;;;4974585;28;19910;-75
2021/03/25 13:51:14;;;;;;;;;;;12.20;79.10;;;;;;4974482;28;20369;-76
2021/03/25 13:53:39;;;;;;;;;;;12.10;79.00;;;;;;4974736;28;19936;-73
2021/03/25 13:56:06;;;;;;;;;;;12.30;79.20;;;;;;4974802;28;19906;-76
2021/03/25 13:58:32;;;;;;;;;;;12.10;79.10;;;;;;4974928;28;20008;-75
2021/03/25 14:01:00;;;;;;;;;;;12.10;79.20;;;;;;4974387;28;19952;-76
2021/03/25 14:03:28;;;;;;;;;;;12.00;79.20;;;;;;4956823;28;19919;-76
2021/03/25 14:05:54;;;;;;;;;;;12.00;79.30;;;;;;4976884;28;19906;-76
2021/03/25 14:08:20;;;;;;;;;;;12.00;79.50;;;;;;4979917;28;19914;-75
2021/03/25 14:10:46;;;;;;;;;;;11.90;79.50;;;;;;4975552;28;20365;-74
2021/03/25 14:13:13;;;;;;;;;;;11.80;79.70;;;;;;4974792;28;19912;-76
2021/03/25 14:15:42;;;;;;;;;;;11.90;79.70;;;;;;4972453;28;19906;-75
2021/03/25 14:18:09;;;;;;;;;;;11.90;79.60;;;;;;4973032;28;19906;-74
2021/03/25 14:20:35;;;;;;;;;;;11.90;79.50;;;;;;4972882;28;19906;-75
2021/03/25 14:23:01;;;;;;;;;;;12.00;79.40;;;;;;4974798;28;19906;-75
2021/03/25 14:25:32;;;;;;;;;;;12.00;79.40;;;;;;4941317;28;19917;-75
2021/03/25 14:27:58;;;;;;;;;;;12.10;79.20;;;;;;4973983;28;20412;-76
2021/03/25 14:30:24;;;;;;;;;;;12.20;79.00;;;;;;4973976;28;19957;-75
2021/03/25 14:32:50;;;;;;;;;;;12.20;79.50;;;;;;4956933;28;20280;-77
2021/03/25 14:35:18;;;;;;;;;;;12.30;78.70;;;;;;4941075;28;20417;-74
2021/03/25 14:37:44;;;;;;;;;;;12.40;78.60;;;;;;4975096;28;19906;-76
2021/03/25 14:40:10;;;;;;;;;;;12.40;78.40;;;;;;4974811;28;19934;-76
2021/03/25 14:42:35;;;;;;;;;;;12.50;78.30;;;;;;4974686;28;19949;-74
2021/03/25 14:45:05;;;;;;;;;;;12.70;78.30;;;;;;4974071;28;19976;-76
2021/03/25 14:47:31;;;;;;;;;;;12.90;77.80;;;;;;4975691;28;20372;-76
2021/03/25 14:49:57;;;;;;;;;;;13.20;77.20;;;;;;4959377;28;19906;-77
2021/03/25 14:52:22;;;;;;;;;;;13.30;76.40;;;;;;4963166;28;19914;-76
2021/03/25 14:54:48;;;;;;;;;;;13.30;75.90;;;;;;4973798;28;19933;-77
2021/03/25 14:57:13;;;;;;;;;;;13.30;76.00;;;;;;4973778;28;19910;-77
2021/03/25 14:59:39;;;;;;;;;;;13.20;76.30;;;;;;4974340;28;20276;-74
2021/03/25 15:02:04;;;;;;;;;;;13.10;76.40;;;;;;4973304;28;20383;-74
2021/03/25 15:04:30;;;;;;;;;;;13.20;76.60;;;;;;4973347;28;19917;-74
2021/03/25 15:06:56;;;;;;;;;;;13.10;76.70;;;;;;4973436;28;19957;-74
2021/03/25 15:09:21;;;;;;;;;;;13.20;76.60;;;;;;4973315;28;19906;-74
2021/03/25 15:11:47;;;;;;;;;;;13.30;76.50;;;;;;4973530;28;19928;-76
2021/03/25 15:14:13;;;;;;;;;;;13.40;76.00;;;;;;4973421;28;19941;-75
2021/03/25 15:16:38;;;;;;;;;;;13.50;75.80;;;;;;4992315;28;19905;-75
2021/03/25 15:19:04;;;;;;;;;;;13.60;75.40;;;;;;4993003;28;19920;-76
2021/03/25 15:21:30;;;;;;;;;;;13.70;75.20;;;;;;4974913;28;19943;-76
2021/03/25 15:23:55;;;;;;;;;;;13.90;74.40;;;;;;4992674;28;19980;-76
2021/03/25 15:26:22;;;;;;;;;;;13.80;74.40;;;;;;4992551;28;19906;-76
2021/03/25 15:28:48;;;;;;;;;;;13.60;74.80;;;;;;4992756;28;19913;-76